Terminal Aerodrome Forecast
Issued by NWS

Home | Current Version | Previous Version | Graphics & Text | Print | Product List | Glossary On
Versions: 1 2 3 4 5 6 7 8 9 10 11 12 13 14 15 16 17
000
FTUS43 KMPX 282300
TAFAXN
TAF
KAXN 282339Z 2900/2924 30014G22KT P6SM OVC025
     FM290300 30012KT P6SM OVC035
     FM290800 32007KT P6SM BKN015 BKN030
     FM291700 30005KT P6SM SCT020 SCT200=

USA.gov is the U.S. government's official web portal to all federal, state and local government web resources and services.